Řízení letového provozu České republiky  
Aktualizace dat:  14.06.2021 00:17:23 UTC English version
   METEO Zobrazení stránky:  14.06.2021 00:18:39 UTC  
vysvětlivky
METAR EDDB 132350Z 10001KT CAVOK 10/07 Q1025 NOSIG=
METAR EDDC 132350Z 26003KT CAVOK 12/07 Q1025=
METAR EDDE 132350Z 21006KT CAVOK 11/08 Q1026=
METAR EDDF 132350Z 07004KT CAVOK 16/10 Q1024 NOSIG=
METAR EDDM 132350Z 36002KT CAVOK 08/06 Q1025 NOSIG=
METAR EDDN 132350Z 10005KT CAVOK 12/08 Q1025=
METAR EDDP 132350Z 27004KT CAVOK 12/09 Q1025 NOSIG=
METAR EDQM NIL
METAR EPBY 140000Z 24005KT CAVOK 09/07 Q1022=
METAR EPGD 140000Z 27006KT CAVOK 11/09 Q1021=
METAR EPKK 140000Z 28009KT 9999 FEW040TCU BKN050 12/08 Q1022=
METAR EPKT 140000Z 29004KT CAVOK 08/07 Q1023=
METAR EPLL 140000Z 28005KT CAVOK 10/07 Q1022=
METAR EPPO 140000Z 24002KT CAVOK 09/08 Q1024=
METAR EPRZ 140000Z 29012KT CAVOK 11/10 Q1019=
METAR EPWA 140000Z 31008KT CAVOK 11/09 Q1020 NOSIG=
METAR EPWR 140000Z 27004KT CAVOK 08/07 Q1024=
METAR LHBP 140000Z 33005KT CAVOK 10/06 Q1020 NOSIG=
METAR LHSM 132345Z AUTO 01012KT CAVOK 13/06 Q1023=
METAR LKBC 140000Z AUTO 00000KT CAVOK 08/06 Q1026=
METAR LKCV 140000Z 12002KT CAVOK 10/08 Q1025 NOSIG RMK BLU BLU=
METAR LKKB 140000Z 23003KT CAVOK 09/06 Q1025 RMK BLU=
METAR LKKU NIL
METAR LKKV 140000Z 07002KT CAVOK 06/04 Q1026 RMK REG QNH 1022=
METAR LKLN 140000Z AUTO VRB01KT CAVOK 08/08 Q1026=
METAR LKMT 140000Z VRB02KT CAVOK 08/07 Q1024 NOSIG RMK REG QNH 1022=
METAR LKNA 140000Z 28006KT 9999 BKN045 08/06 Q1025 RMK BLU=
METAR LKPD 140000Z VRB01KT CAVOK 12/08 Q1025 RMK BLU=
METAR LKPJ 140000Z AUTO 31006KT CAVOK 11/06 Q1024=
METAR LKPR 140000Z 24007KT CAVOK 07/05 Q1025 NOSIG RMK REG QNH 1022=
METAR LKTB 140000Z 30006KT CAVOK 11/06 Q1024 NOSIG RMK REG QNH 1022=
METAR LKVO NIL
METAR LOWI 132350Z AUTO VRB02KT 9999 NCD 14/09 Q1025=
METAR LOWL 132350Z 07004KT CAVOK 12/07 Q1026 NOSIG=
METAR LOWS 132350Z AUTO 19003KT 9999 NCD 11/08 Q1025=
METAR LOWW 132350Z 33010KT CAVOK 12/06 Q1025 NOSIG=
METAR LZIB 140000Z 32009KT CAVOK 13/06 Q1024=
METAR LZKZ 140000Z 34011KT CAVOK 14/07 Q1019=
METAR LZMC 140000Z AUTO VRB01KT 6000 R19/1500 ////// 10/06 Q1025=
METAR LZPP 140000Z AUTO 32004KT 9999 NCD 09/06 Q1023=
METAR LZSL 132300Z AUTO 03004KT 8000 // OVC220/// 11/05 Q1022=
METAR LZTT 140000Z 22003KT 180V260 9999 FEW033 BKN053 10/05 Q1021=
METAR LZZI 140000Z VRB01KT 9999 BKN035 BKN059 10/07 Q1023=